NCAR-RAP Real-Time Weather Data

Output produced by METARs form (08 May 2021  17:06 UTC)
found at http://weather.rap.ucar.edu/surface/
 
KBIS 081652Z 12009KT 7SM -RA FEW027 OVC035 05/03 A3002 RMK AO2 PK WND 11029/1609 SLP177 P0001 T00500033
KBIS 081638Z 13010G24KT 10SM -RA OVC033 05/03 A3001 RMK AO2 PK WND 11029/1609 P0000 T00500028
KBIS 081602Z 14017G24KT 10SM -RA OVC029 06/02 A3004 RMK AO2 P0000 T00610017
KBIS 081552Z 14017KT 10SM -RA OVC031 06/01 A3004 RMK AO2 RAB44 SLP181 P0000 T00610006
KBIS 081452Z 18009KT 10SM OVC060 07/00 A3004 RMK AO2 SLP184 T00670000 53012
KBIS 081352Z 11013KT 10SM OVC080 08/M04 A3001 RMK AO2 SLP171 T00781044
KBIS 081252Z 12010KT 10SM OVC110 08/M04 A3004 RMK AO2 SLP177 T00831044
KBIS 081152Z 11009KT 10SM OVC100 08/M05 A3001 RMK AO2 SLP166 T00831050 10089 20078 53000
KBIS 081052Z 10008KT 10SM OVC095 08/M04 A3000 RMK AO2 SLP164 T00831044
KBIS 080952Z AUTO 10011KT 10SM OVC100 08/M04 A3000 RMK AO2 SLP165 T00831044
KBIS 080852Z AUTO 08014KT 10SM OVC090 08/M04 A3001 RMK AO2 PRESFR SLP166 T00831044 56010
KBIS 080752Z AUTO 09013KT 10SM BKN110 09/M05 A3002 RMK AO2 SLP171 T00891050
KBIS 080652Z AUTO 10013KT 10SM CLR 08/M04 A3002 RMK AO2 SLP170 T00831044
KBIS 080552Z AUTO 10013KT 10SM FEW120 09/M04 A3004 RMK AO2 SLP178 T00891044 10156 20089 401671022 58002
KBIS 080452Z AUTO 10012KT 10SM CLR 09/M04 A3006 RMK AO2 SLP183 T00941044
KBIS 080352Z AUTO 10012G20KT 10SM BKN100 BKN120 10/M04 A3006 RMK AO2 SLP187 T01001044
KBIS 080252Z AUTO 10011KT 10SM CLR 10/M06 A3005 RMK AO2 SLP182 T01001056 53005